sensor_id;sensor_type;location;lat;lon;timestamp;temperature;humidity
14349;DHT22;7258;50.376;8.742;2023-03-01T00:00:30;-1.60;99.90
14349;DHT22;7258;50.376;8.742;2023-03-01T00:02:34;-1.60;99.90
14349;DHT22;7258;50.376;8.742;2023-03-01T00:04:37;-1.60;99.90
14349;DHT22;7258;50.376;8.742;2023-03-01T00:06:42;-1.60;99.90
14349;DHT22;7258;50.376;8.742;2023-03-01T00:08:47;-1.60;99.90
14349;DHT22;7258;50.376;8.742;2023-03-01T00:11:00;-1.60;99.90
14349;DHT22;7258;50.376;8.742;2023-03-01T00:13:05;-1.60;99.90
14349;DHT22;7258;50.376;8.742;2023-03-01T00:15:08;-1.60;99.90
14349;DHT22;7258;50.376;8.742;2023-03-01T00:17:13;-1.60;99.90
14349;DHT22;7258;50.376;8.742;2023-03-01T00:19:18;-1.60;99.90
14349;DHT22;7258;50.376;8.742;2023-03-01T00:21:21;-1.60;99.90
14349;DHT22;7258;50.376;8.742;2023-03-01T00:23:25;-1.60;99.90
14349;DHT22;7258;50.376;8.742;2023-03-01T00:25:29;-1.60;99.90
14349;DHT22;7258;50.376;8.742;2023-03-01T00:27:32;-1.60;99.90
14349;DHT22;7258;50.376;8.742;2023-03-01T00:29:36;-1.60;99.90
14349;DHT22;7258;50.376;8.742;2023-03-01T00:31:39;-1.60;99.90
14349;DHT22;7258;50.376;8.742;2023-03-01T00:33:43;-1.60;99.90
14349;DHT22;7258;50.376;8.742;2023-03-01T00:35:48;-1.70;99.90
14349;DHT22;7258;50.376;8.742;2023-03-01T00:37:51;-1.70;99.90
14349;DHT22;7258;50.376;8.742;2023-03-01T00:39:59;-1.80;99.90
14349;DHT22;7258;50.376;8.742;2023-03-01T00:42:02;-1.80;99.90
14349;DHT22;7258;50.376;8.742;2023-03-01T00:44:06;-1.90;99.90
14349;DHT22;7258;50.376;8.742;2023-03-01T00:46:15;-1.90;99.90
14349;DHT22;7258;50.376;8.742;2023-03-01T00:48:18;-1.90;99.90
14349;DHT22;7258;50.376;8.742;2023-03-01T00:50:22;-2.00;99.90
14349;DHT22;7258;50.376;8.742;2023-03-01T00:52:26;-2.00;99.90
14349;DHT22;7258;50.376;8.742;2023-03-01T00:54:30;-2.10;99.90
14349;DHT22;7258;50.376;8.742;2023-03-01T00:56:33;-2.10;99.90
14349;DHT22;7258;50.376;8.742;2023-03-01T00:58:36;-2.20;99.90
14349;DHT22;7258;50.376;8.742;2023-03-01T01:00:40;-2.20;99.90
14349;DHT22;7258;50.376;8.742;2023-03-01T01:02:45;-2.20;99.90
14349;DHT22;7258;50.376;8.742;2023-03-01T01:04:51;-2.20;99.90
14349;DHT22;7258;50.376;8.742;2023-03-01T01:06:54;-2.20;99.90
14349;DHT22;7258;50.376;8.742;2023-03-01T01:08:57;-2.20;99.90
14349;DHT22;7258;50.376;8.742;2023-03-01T01:11:01;-2.30;99.90
14349;DHT22;7258;50.376;8.742;2023-03-01T01:13:04;-2.20;99.90
14349;DHT22;7258;50.376;8.742;2023-03-01T01:15:08;-2.30;99.90
14349;DHT22;7258;50.376;8.742;2023-03-01T01:17:13;-2.30;99.90
14349;DHT22;7258;50.376;8.742;2023-03-01T01:19:18;-2.30;99.90
14349;DHT22;7258;50.376;8.742;2023-03-01T01:21:23;-2.30;99.90
14349;DHT22;7258;50.376;8.742;2023-03-01T01:23:26;-2.30;99.90
14349;DHT22;7258;50.376;8.742;2023-03-01T01:25:29;-2.40;99.90
14349;DHT22;7258;50.376;8.742;2023-03-01T01:27:33;-2.30;99.90
14349;DHT22;7258;50.376;8.742;2023-03-01T01:29:36;-2.30;99.90
14349;DHT22;7258;50.376;8.742;2023-03-01T01:31:41;-2.30;99.90
14349;DHT22;7258;50.376;8.742;2023-03-01T01:33:44;-2.30;99.90
14349;DHT22;7258;50.376;8.742;2023-03-01T01:35:49;-2.30;99.90
14349;DHT22;7258;50.376;8.742;2023-03-01T01:37:52;-2.30;99.90
14349;DHT22;7258;50.376;8.742;2023-03-01T01:39:55;-2.30;99.90
14349;DHT22;7258;50.376;8.742;2023-03-01T01:41:58;-2.40;99.90
14349;DHT22;7258;50.376;8.742;2023-03-01T01:44:17;-2.40;99.90
14349;DHT22;7258;50.376;8.742;2023-03-01T01:46:25;-2.40;99.90
14349;DHT22;7258;50.376;8.742;2023-03-01T01:48:39;-2.40;99.90
14349;DHT22;7258;50.376;8.742;2023-03-01T01:50:44;-2.40;99.90
14349;DHT22;7258;50.376;8.742;2023-03-01T01:52:52;-2.30;99.90
14349;DHT22;7258;50.376;8.742;2023-03-01T01:54:59;-2.20;99.90
14349;DHT22;7258;50.376;8.742;2023-03-01T01:57:16;-2.20;99.90
14349;DHT22;7258;50.376;8.742;2023-03-01T01:59:21;-2.20;99.90
14349;DHT22;7258;50.376;8.742;2023-03-01T02:01:27;-2.10;99.90
14349;DHT22;7258;50.376;8.742;2023-03-01T02:03:31;-2.10;99.90
14349;DHT22;7258;50.376;8.742;2023-03-01T02:05:43;-2.10;99.90
14349;DHT22;7258;50.376;8.742;2023-03-01T02:07:53;-2.10;99.90
14349;DHT22;7258;50.376;8.742;2023-03-01T02:09:56;-2.10;99.90
14349;DHT22;7258;50.376;8.742;2023-03-01T02:12:00;-2.10;99.90
14349;DHT22;7258;50.376;8.742;2023-03-01T02:14:04;-2.10;99.90
14349;DHT22;7258;50.376;8.742;2023-03-01T02:16:09;-2.10;99.90
14349;DHT22;7258;50.376;8.742;2023-03-01T02:18:16;-2.00;99.90
14349;DHT22;7258;50.376;8.742;2023-03-01T02:20:25;-2.00;99.90
14349;DHT22;7258;50.376;8.742;2023-03-01T02:22:31;-2.00;99.90
14349;DHT22;7258;50.376;8.742;2023-03-01T02:24:40;-2.00;99.90
14349;DHT22;7258;50.376;8.742;2023-03-01T02:26:55;-2.00;99.90
14349;DHT22;7258;50.376;8.742;2023-03-01T02:29:00;-2.00;99.90
14349;DHT22;7258;50.376;8.742;2023-03-01T02:31:05;-1.90;99.90
14349;DHT22;7258;50.376;8.742;2023-03-01T02:33:26;-1.90;99.90
14349;DHT22;7258;50.376;8.742;2023-03-01T02:35:30;-1.90;99.90
14349;DHT22;7258;50.376;8.742;2023-03-01T02:37:35;-1.90;99.90
14349;DHT22;7258;50.376;8.742;2023-03-01T02:39:41;-1.90;99.90
14349;DHT22;7258;50.376;8.742;2023-03-01T02:41:48;-2.00;99.90
14349;DHT22;7258;50.376;8.742;2023-03-01T02:43:52;-1.90;99.90
14349;DHT22;7258;50.376;8.742;2023-03-01T02:46:04;-1.90;99.90
14349;DHT22;7258;50.376;8.742;2023-03-01T02:48:08;-1.90;99.90
14349;DHT22;7258;50.376;8.742;2023-03-01T02:50:19;-1.90;99.90
14349;DHT22;7258;50.376;8.742;2023-03-01T02:52:36;-2.00;99.90
14349;DHT22;7258;50.376;8.742;2023-03-01T02:54:46;-2.00;99.90
14349;DHT22;7258;50.376;8.742;2023-03-01T02:56:52;-2.00;99.90
14349;DHT22;7258;50.376;8.742;2023-03-01T02:58:55;-2.00;99.90
14349;DHT22;7258;50.376;8.742;2023-03-01T03:01:03;-2.00;99.90
14349;DHT22;7258;50.376;8.742;2023-03-01T03:03:07;-2.00;99.90
14349;DHT22;7258;50.376;8.742;2023-03-01T03:05:13;-2.00;99.90
14349;DHT22;7258;50.376;8.742;2023-03-01T03:07:16;-2.10;99.90
14349;DHT22;7258;50.376;8.742;2023-03-01T03:09:19;-2.10;99.90
14349;DHT22;7258;50.376;8.742;2023-03-01T03:11:23;-2.10;99.90
14349;DHT22;7258;50.376;8.742;2023-03-01T03:13:26;-2.10;99.90
14349;DHT22;7258;50.376;8.742;2023-03-01T03:15:30;-2.10;99.90
14349;DHT22;7258;50.376;8.742;2023-03-01T03:17:40;-2.10;99.90
14349;DHT22;7258;50.376;8.742;2023-03-01T03:19:47;-2.10;99.90
14349;DHT22;7258;50.376;8.742;2023-03-01T03:21:50;-2.10;99.90
14349;DHT22;7258;50.376;8.742;2023-03-01T03:23:53;-2.10;99.90
14349;DHT22;7258;50.376;8.742;2023-03-01T03:25:59;-2.10;99.90
14349;DHT22;7258;50.376;8.742;2023-03-01T03:28:03;-2.10;99.90
14349;DHT22;7258;50.376;8.742;2023-03-01T03:30:13;-2.10;99.90
14349;DHT22;7258;50.376;8.742;2023-03-01T03:32:17;-2.10;99.90
14349;DHT22;7258;50.376;8.742;2023-03-01T03:34:22;-2.10;99.90
14349;DHT22;7258;50.376;8.742;2023-03-01T03:36:25;-2.10;99.90
14349;DHT22;7258;50.376;8.742;2023-03-01T03:38:28;-2.10;99.90
14349;DHT22;7258;50.376;8.742;2023-03-01T03:40:34;-2.10;99.90
14349;DHT22;7258;50.376;8.742;2023-03-01T03:42:37;-2.20;99.90
14349;DHT22;7258;50.376;8.742;2023-03-01T03:44:40;-2.30;99.90
14349;DHT22;7258;50.376;8.742;2023-03-01T03:46:43;-2.30;99.90
14349;DHT22;7258;50.376;8.742;2023-03-01T03:48:46;-2.30;99.90
14349;DHT22;7258;50.376;8.742;2023-03-01T03:50:54;-2.40;99.90
14349;DHT22;7258;50.376;8.742;2023-03-01T03:53:00;-2.40;99.90
14349;DHT22;7258;50.376;8.742;2023-03-01T03:55:05;-2.40;99.90
14349;DHT22;7258;50.376;8.742;2023-03-01T03:57:12;-2.50;99.90
14349;DHT22;7258;50.376;8.742;2023-03-01T03:59:15;-2.50;99.90
14349;DHT22;7258;50.376;8.742;2023-03-01T04:01:19;-2.50;99.90
14349;DHT22;7258;50.376;8.742;2023-03-01T04:03:23;-2.50;99.90
14349;DHT22;7258;50.376;8.742;2023-03-01T04:05:27;-2.50;99.90
14349;DHT22;7258;50.376;8.742;2023-03-01T04:07:32;-2.50;99.90
14349;DHT22;7258;50.376;8.742;2023-03-01T04:09:35;-2.60;99.90
14349;DHT22;7258;50.376;8.742;2023-03-01T04:11:38;-2.60;99.90
14349;DHT22;7258;50.376;8.742;2023-03-01T04:13:42;-2.60;99.90
14349;DHT22;7258;50.376;8.742;2023-03-01T04:15:45;-2.60;99.90
14349;DHT22;7258;50.376;8.742;2023-03-01T04:17:51;-2.60;99.90
14349;DHT22;7258;50.376;8.742;2023-03-01T04:19:55;-2.50;99.90
14349;DHT22;7258;50.376;8.742;2023-03-01T04:21:58;-2.50;99.90
14349;DHT22;7258;50.376;8.742;2023-03-01T04:24:03;-2.40;99.90
14349;DHT22;7258;50.376;8.742;2023-03-01T04:26:07;-2.40;99.90
14349;DHT22;7258;50.376;8.742;2023-03-01T04:28:10;-2.40;99.90
14349;DHT22;7258;50.376;8.742;2023-03-01T04:30:14;-2.40;99.90
14349;DHT22;7258;50.376;8.742;2023-03-01T04:32:18;-2.40;99.90
14349;DHT22;7258;50.376;8.742;2023-03-01T04:34:21;-2.40;99.90
14349;DHT22;7258;50.376;8.742;2023-03-01T04:36:26;-2.40;99.90
14349;DHT22;7258;50.376;8.742;2023-03-01T04:38:31;-2.40;99.90
14349;DHT22;7258;50.376;8.742;2023-03-01T04:40:37;-2.40;99.90
14349;DHT22;7258;50.376;8.742;2023-03-01T04:42:40;-2.40;99.90
14349;DHT22;7258;50.376;8.742;2023-03-01T04:44:44;-2.30;99.90
14349;DHT22;7258;50.376;8.742;2023-03-01T04:46:49;-2.30;99.90
14349;DHT22;7258;50.376;8.742;2023-03-01T04:48:52;-2.30;99.90
14349;DHT22;7258;50.376;8.742;2023-03-01T04:50:55;-2.30;99.90
14349;DHT22;7258;50.376;8.742;2023-03-01T04:52:59;-2.30;99.90
14349;DHT22;7258;50.376;8.742;2023-03-01T04:55:02;-2.30;99.90
14349;DHT22;7258;50.376;8.742;2023-03-01T04:57:07;-2.30;99.90
14349;DHT22;7258;50.376;8.742;2023-03-01T04:59:10;-2.30;99.90
14349;DHT22;7258;50.376;8.742;2023-03-01T05:01:16;-2.40;99.90
14349;DHT22;7258;50.376;8.742;2023-03-01T05:03:21;-2.40;99.90
14349;DHT22;7258;50.376;8.742;2023-03-01T05:05:28;-2.40;99.90
14349;DHT22;7258;50.376;8.742;2023-03-01T05:07:32;-2.40;99.90
14349;DHT22;7258;50.376;8.742;2023-03-01T05:09:36;-2.40;99.90
14349;DHT22;7258;50.376;8.742;2023-03-01T05:11:40;-2.40;99.90
14349;DHT22;7258;50.376;8.742;2023-03-01T05:13:45;-2.40;99.90
14349;DHT22;7258;50.376;8.742;2023-03-01T05:15:55;-2.40;99.90
14349;DHT22;7258;50.376;8.742;2023-03-01T05:17:59;-2.40;99.90
14349;DHT22;7258;50.376;8.742;2023-03-01T05:20:03;-2.30;99.90
14349;DHT22;7258;50.376;8.742;2023-03-01T05:22:10;-2.30;99.90
14349;DHT22;7258;50.376;8.742;2023-03-01T05:24:13;-2.30;99.90
14349;DHT22;7258;50.376;8.742;2023-03-01T05:26:18;-2.30;99.90
14349;DHT22;7258;50.376;8.742;2023-03-01T05:28:31;-2.30;99.90
14349;DHT22;7258;50.376;8.742;2023-03-01T05:30:39;-2.30;99.90
14349;DHT22;7258;50.376;8.742;2023-03-01T05:32:45;-2.30;99.90
14349;DHT22;7258;50.376;8.742;2023-03-01T05:34:49;-2.30;99.90
14349;DHT22;7258;50.376;8.742;2023-03-01T05:36:54;-2.30;99.90
14349;DHT22;7258;50.376;8.742;2023-03-01T05:38:57;-2.30;99.90
14349;DHT22;7258;50.376;8.742;2023-03-01T05:41:00;-2.40;99.90
14349;DHT22;7258;50.376;8.742;2023-03-01T05:43:06;-2.40;99.90
14349;DHT22;7258;50.376;8.742;2023-03-01T05:45:22;-2.40;99.90
14349;DHT22;7258;50.376;8.742;2023-03-01T05:47:31;-2.50;99.90
14349;DHT22;7258;50.376;8.742;2023-03-01T05:49:34;-2.50;99.90
14349;DHT22;7258;50.376;8.742;2023-03-01T05:51:40;-2.50;99.90
14349;DHT22;7258;50.376;8.742;2023-03-01T05:53:44;-2.60;99.90
14349;DHT22;7258;50.376;8.742;2023-03-01T05:55:50;-2.60;99.90
14349;DHT22;7258;50.376;8.742;2023-03-01T05:57:54;-2.60;99.90
14349;DHT22;7258;50.376;8.742;2023-03-01T06:00:15;-2.60;99.90
14349;DHT22;7258;50.376;8.742;2023-03-01T06:02:25;-2.60;99.90
14349;DHT22;7258;50.376;8.742;2023-03-01T06:04:30;-2.60;99.90
14349;DHT22;7258;50.376;8.742;2023-03-01T06:06:37;-2.60;99.90
14349;DHT22;7258;50.376;8.742;2023-03-01T06:08:40;-2.70;99.90
14349;DHT22;7258;50.376;8.742;2023-03-01T06:10:48;-2.70;99.90
14349;DHT22;7258;50.376;8.742;2023-03-01T06:12:58;-2.70;99.90
14349;DHT22;7258;50.376;8.742;2023-03-01T06:15:08;-2.70;99.90
14349;DHT22;7258;50.376;8.742;2023-03-01T06:17:22;-2.70;99.90
14349;DHT22;7258;50.376;8.742;2023-03-01T06:19:29;-2.60;99.90
14349;DHT22;7258;50.376;8.742;2023-03-01T06:21:33;-2.60;99.90
14349;DHT22;7258;50.376;8.742;2023-03-01T06:23:44;-2.60;99.90
14349;DHT22;7258;50.376;8.742;2023-03-01T06:25:54;-2.60;99.90
14349;DHT22;7258;50.376;8.742;2023-03-01T06:27:57;-2.50;99.90
14349;DHT22;7258;50.376;8.742;2023-03-01T06:30:08;-2.50;99.90
14349;DHT22;7258;50.376;8.742;2023-03-01T06:32:32;-2.40;99.90
14349;DHT22;7258;50.376;8.742;2023-03-01T06:35:10;-2.30;99.90
14349;DHT22;7258;50.376;8.742;2023-03-01T06:37:24;-2.20;99.90
14349;DHT22;7258;50.376;8.742;2023-03-01T06:39:28;-2.10;99.90
14349;DHT22;7258;50.376;8.742;2023-03-01T06:41:31;-2.10;99.90
14349;DHT22;7258;50.376;8.742;2023-03-01T06:43:38;-2.00;99.90
14349;DHT22;7258;50.376;8.742;2023-03-01T06:45:41;-1.90;99.90
14349;DHT22;7258;50.376;8.742;2023-03-01T06:47:51;-1.80;99.90
14349;DHT22;7258;50.376;8.742;2023-03-01T06:49:59;-1.70;99.90
14349;DHT22;7258;50.376;8.742;2023-03-01T06:52:03;-1.60;99.90
14349;DHT22;7258;50.376;8.742;2023-03-01T06:54:08;-1.60;99.90
14349;DHT22;7258;50.376;8.742;2023-03-01T06:56:12;-1.50;99.90
14349;DHT22;7258;50.376;8.742;2023-03-01T06:58:15;-1.40;99.90
14349;DHT22;7258;50.376;8.742;2023-03-01T07:00:19;-1.40;99.90
14349;DHT22;7258;50.376;8.742;2023-03-01T07:02:22;-1.30;99.90
14349;DHT22;7258;50.376;8.742;2023-03-01T07:04:28;-1.30;99.90
14349;DHT22;7258;50.376;8.742;2023-03-01T07:06:36;-1.20;99.90
14349;DHT22;7258;50.376;8.742;2023-03-01T07:08:45;-1.20;99.90
14349;DHT22;7258;50.376;8.742;2023-03-01T07:10:48;-1.20;99.90
14349;DHT22;7258;50.376;8.742;2023-03-01T07:12:57;-1.10;99.90
14349;DHT22;7258;50.376;8.742;2023-03-01T07:15:01;-1.10;99.90
14349;DHT22;7258;50.376;8.742;2023-03-01T07:17:04;-1.10;99.90
14349;DHT22;7258;50.376;8.742;2023-03-01T07:19:07;-1.10;99.90
14349;DHT22;7258;50.376;8.742;2023-03-01T07:21:12;-1.10;99.90
14349;DHT22;7258;50.376;8.742;2023-03-01T07:23:18;-1.10;99.90
14349;DHT22;7258;50.376;8.742;2023-03-01T07:25:25;-1.10;99.90
14349;DHT22;7258;50.376;8.742;2023-03-01T07:27:28;-1.10;99.90
14349;DHT22;7258;50.376;8.742;2023-03-01T07:29:31;-1.10;99.90
14349;DHT22;7258;50.376;8.742;2023-03-01T07:31:34;-1.00;99.90
14349;DHT22;7258;50.376;8.742;2023-03-01T07:33:38;-1.00;99.90
14349;DHT22;7258;50.376;8.742;2023-03-01T07:35:41;-1.00;99.90
14349;DHT22;7258;50.376;8.742;2023-03-01T07:37:44;-0.90;99.90
14349;DHT22;7258;50.376;8.742;2023-03-01T07:39:51;-0.90;99.90
14349;DHT22;7258;50.376;8.742;2023-03-01T07:41:54;-0.90;99.90
14349;DHT22;7258;50.376;8.742;2023-03-01T07:43:57;-0.80;99.90
14349;DHT22;7258;50.376;8.742;2023-03-01T07:46:01;-0.80;99.90
14349;DHT22;7258;50.376;8.742;2023-03-01T07:48:04;-0.70;99.90
14349;DHT22;7258;50.376;8.742;2023-03-01T07:50:09;-0.60;99.90
14349;DHT22;7258;50.376;8.742;2023-03-01T07:52:12;-0.60;99.90
14349;DHT22;7258;50.376;8.742;2023-03-01T07:54:15;-0.50;99.90
14349;DHT22;7258;50.376;8.742;2023-03-01T07:56:21;-0.40;99.90
14349;DHT22;7258;50.376;8.742;2023-03-01T07:58:24;-0.40;99.90
14349;DHT22;7258;50.376;8.742;2023-03-01T08:00:27;-0.30;99.90
14349;DHT22;7258;50.376;8.742;2023-03-01T08:02:30;-0.30;99.90
14349;DHT22;7258;50.376;8.742;2023-03-01T08:04:34;-0.20;99.90
14349;DHT22;7258;50.376;8.742;2023-03-01T08:06:37;-0.10;99.90
14349;DHT22;7258;50.376;8.742;2023-03-01T08:08:41;0.00;99.90
14349;DHT22;7258;50.376;8.742;2023-03-01T08:10:44;0.10;99.90
14349;DHT22;7258;50.376;8.742;2023-03-01T08:12:51;0.20;99.90
14349;DHT22;7258;50.376;8.742;2023-03-01T08:14:54;0.30;99.90
14349;DHT22;7258;50.376;8.742;2023-03-01T08:16:57;0.40;99.90
14349;DHT22;7258;50.376;8.742;2023-03-01T08:19:04;0.50;99.90
14349;DHT22;7258;50.376;8.742;2023-03-01T08:21:09;0.60;99.90
14349;DHT22;7258;50.376;8.742;2023-03-01T08:23:12;0.70;99.90
14349;DHT22;7258;50.376;8.742;2023-03-01T08:25:15;0.80;99.90
14349;DHT22;7258;50.376;8.742;2023-03-01T08:27:18;0.90;99.90
14349;DHT22;7258;50.376;8.742;2023-03-01T08:29:23;1.00;99.90
14349;DHT22;7258;50.376;8.742;2023-03-01T08:31:29;1.10;99.90
14349;DHT22;7258;50.376;8.742;2023-03-01T08:33:32;1.10;99.90
14349;DHT22;7258;50.376;8.742;2023-03-01T08:35:35;1.20;99.90
14349;DHT22;7258;50.376;8.742;2023-03-01T08:37:38;1.30;99.90
14349;DHT22;7258;50.376;8.742;2023-03-01T08:39:41;1.40;99.90
14349;DHT22;7258;50.376;8.742;2023-03-01T08:41:44;1.50;99.90
14349;DHT22;7258;50.376;8.742;2023-03-01T08:43:49;1.50;99.90
14349;DHT22;7258;50.376;8.742;2023-03-01T08:45:53;1.60;99.90
14349;DHT22;7258;50.376;8.742;2023-03-01T08:47:56;1.60;99.90
14349;DHT22;7258;50.376;8.742;2023-03-01T08:49:59;1.70;99.90
14349;DHT22;7258;50.376;8.742;2023-03-01T08:52:02;1.80;99.90
14349;DHT22;7258;50.376;8.742;2023-03-01T08:54:05;1.80;99.90
14349;DHT22;7258;50.376;8.742;2023-03-01T08:56:09;1.90;99.90
14349;DHT22;7258;50.376;8.742;2023-03-01T08:58:12;1.90;99.90
14349;DHT22;7258;50.376;8.742;2023-03-01T09:00:16;2.00;99.90
14349;DHT22;7258;50.376;8.742;2023-03-01T09:02:20;2.00;99.90
14349;DHT22;7258;50.376;8.742;2023-03-01T09:04:23;2.10;99.90
14349;DHT22;7258;50.376;8.742;2023-03-01T09:06:26;2.10;99.90
14349;DHT22;7258;50.376;8.742;2023-03-01T09:08:30;2.20;99.90
14349;DHT22;7258;50.376;8.742;2023-03-01T09:10:37;2.20;99.90
14349;DHT22;7258;50.376;8.742;2023-03-01T09:12:40;2.30;99.90
14349;DHT22;7258;50.376;8.742;2023-03-01T09:14:44;2.30;99.90
14349;DHT22;7258;50.376;8.742;2023-03-01T09:16:48;2.30;99.90
14349;DHT22;7258;50.376;8.742;2023-03-01T09:18:54;2.40;99.90
14349;DHT22;7258;50.376;8.742;2023-03-01T09:21:01;2.40;99.90
14349;DHT22;7258;50.376;8.742;2023-03-01T09:23:04;2.40;99.90
14349;DHT22;7258;50.376;8.742;2023-03-01T09:25:07;2.40;99.90
14349;DHT22;7258;50.376;8.742;2023-03-01T09:27:11;2.50;99.90
14349;DHT22;7258;50.376;8.742;2023-03-01T09:29:16;2.60;99.90
14349;DHT22;7258;50.376;8.742;2023-03-01T09:31:21;2.70;99.90
14349;DHT22;7258;50.376;8.742;2023-03-01T09:33:24;2.70;99.90
14349;DHT22;7258;50.376;8.742;2023-03-01T09:35:29;2.80;99.90
14349;DHT22;7258;50.376;8.742;2023-03-01T09:37:32;2.90;99.90
14349;DHT22;7258;50.376;8.742;2023-03-01T09:39:35;2.90;99.90
14349;DHT22;7258;50.376;8.742;2023-03-01T09:41:45;2.90;99.90
14349;DHT22;7258;50.376;8.742;2023-03-01T09:43:51;3.10;99.90
14349;DHT22;7258;50.376;8.742;2023-03-01T09:46:00;3.10;99.90
14349;DHT22;7258;50.376;8.742;2023-03-01T09:48:07;3.10;99.90
14349;DHT22;7258;50.376;8.742;2023-03-01T09:50:16;3.20;99.90
14349;DHT22;7258;50.376;8.742;2023-03-01T09:52:27;3.40;99.90
14349;DHT22;7258;50.376;8.742;2023-03-01T09:54:32;3.40;99.90
14349;DHT22;7258;50.376;8.742;2023-03-01T09:56:39;3.50;99.90
14349;DHT22;7258;50.376;8.742;2023-03-01T09:58:48;3.60;99.90
14349;DHT22;7258;50.376;8.742;2023-03-01T10:00:56;3.60;99.90
14349;DHT22;7258;50.376;8.742;2023-03-01T10:03:10;3.70;99.90
14349;DHT22;7258;50.376;8.742;2023-03-01T10:05:31;3.70;99.90
14349;DHT22;7258;50.376;8.742;2023-03-01T10:07:44;3.80;99.90
14349;DHT22;7258;50.376;8.742;2023-03-01T10:09:51;3.80;99.90
14349;DHT22;7258;50.376;8.742;2023-03-01T10:11:56;3.90;99.90
14349;DHT22;7258;50.376;8.742;2023-03-01T10:14:03;3.90;99.90
14349;DHT22;7258;50.376;8.742;2023-03-01T10:16:12;4.00;99.90
14349;DHT22;7258;50.376;8.742;2023-03-01T10:18:20;4.10;99.90
14349;DHT22;7258;50.376;8.742;2023-03-01T10:20:29;4.30;99.90
14349;DHT22;7258;50.376;8.742;2023-03-01T10:22:35;4.40;99.90
14349;DHT22;7258;50.376;8.742;2023-03-01T10:24:40;4.50;99.90
14349;DHT22;7258;50.376;8.742;2023-03-01T10:26:52;4.60;99.90
14349;DHT22;7258;50.376;8.742;2023-03-01T10:29:02;4.60;99.90
14349;DHT22;7258;50.376;8.742;2023-03-01T10:31:12;4.60;99.90
14349;DHT22;7258;50.376;8.742;2023-03-01T10:33:19;4.60;99.90
14349;DHT22;7258;50.376;8.742;2023-03-01T10:35:25;4.70;99.90
14349;DHT22;7258;50.376;8.742;2023-03-01T10:37:28;4.80;99.90
14349;DHT22;7258;50.376;8.742;2023-03-01T10:39:31;4.80;99.90
14349;DHT22;7258;50.376;8.742;2023-03-01T10:41:56;4.80;99.90
14349;DHT22;7258;50.376;8.742;2023-03-01T10:43:59;4.80;99.90
14349;DHT22;7258;50.376;8.742;2023-03-01T10:46:02;4.80;99.90
14349;DHT22;7258;50.376;8.742;2023-03-01T10:48:13;4.90;99.90
14349;DHT22;7258;50.376;8.742;2023-03-01T10:50:21;5.00;99.90
14349;DHT22;7258;50.376;8.742;2023-03-01T10:52:29;5.00;99.90
14349;DHT22;7258;50.376;8.742;2023-03-01T10:54:32;5.10;99.90
14349;DHT22;7258;50.376;8.742;2023-03-01T10:56:51;5.20;99.90
14349;DHT22;7258;50.376;8.742;2023-03-01T10:59:00;5.20;99.90
14349;DHT22;7258;50.376;8.742;2023-03-01T11:01:04;5.20;99.90
14349;DHT22;7258;50.376;8.742;2023-03-01T11:03:12;5.20;99.90
14349;DHT22;7258;50.376;8.742;2023-03-01T11:05:21;5.30;99.90
14349;DHT22;7258;50.376;8.742;2023-03-01T11:07:26;5.50;99.90
14349;DHT22;7258;50.376;8.742;2023-03-01T11:09:32;5.70;99.40
14349;DHT22;7258;50.376;8.742;2023-03-01T11:11:39;5.70;98.60
14349;DHT22;7258;50.376;8.742;2023-03-01T11:13:54;5.70;98.50
14349;DHT22;7258;50.376;8.742;2023-03-01T11:15:59;5.80;98.40
14349;DHT22;7258;50.376;8.742;2023-03-01T11:18:03;5.90;98.70
14349;DHT22;7258;50.376;8.742;2023-03-01T11:20:20;6.00;98.60
14349;DHT22;7258;50.376;8.742;2023-03-01T11:22:29;6.00;98.30
14349;DHT22;7258;50.376;8.742;2023-03-01T11:24:38;6.10;98.10
14349;DHT22;7258;50.376;8.742;2023-03-01T11:26:47;6.10;97.80
14349;DHT22;7258;50.376;8.742;2023-03-01T11:28:55;6.10;97.90
14349;DHT22;7258;50.376;8.742;2023-03-01T11:31:02;6.10;97.60
14349;DHT22;7258;50.376;8.742;2023-03-01T11:33:16;6.10;97.80
14349;DHT22;7258;50.376;8.742;2023-03-01T11:35:23;6.10;97.60
14349;DHT22;7258;50.376;8.742;2023-03-01T11:37:33;6.10;97.50
14349;DHT22;7258;50.376;8.742;2023-03-01T11:39:40;6.20;97.60
14349;DHT22;7258;50.376;8.742;2023-03-01T11:41:48;6.20;97.80
14349;DHT22;7258;50.376;8.742;2023-03-01T11:43:58;6.20;97.70
14349;DHT22;7258;50.376;8.742;2023-03-01T11:46:34;6.30;97.30
14349;DHT22;7258;50.376;8.742;2023-03-01T11:48:52;6.30;96.90
14349;DHT22;7258;50.376;8.742;2023-03-01T11:51:05;6.40;96.80
14349;DHT22;7258;50.376;8.742;2023-03-01T11:53:23;6.40;96.70
14349;DHT22;7258;50.376;8.742;2023-03-01T11:55:45;6.40;96.60
14349;DHT22;7258;50.376;8.742;2023-03-01T11:58:14;6.50;96.40
14349;DHT22;7258;50.376;8.742;2023-03-01T12:00:37;6.50;96.50
14349;DHT22;7258;50.376;8.742;2023-03-01T12:03:00;6.50;95.70
14349;DHT22;7258;50.376;8.742;2023-03-01T12:05:20;6.50;95.60
14349;DHT22;7258;50.376;8.742;2023-03-01T12:07:32;6.60;95.80
14349;DHT22;7258;50.376;8.742;2023-03-01T12:09:45;6.50;95.50
14349;DHT22;7258;50.376;8.742;2023-03-01T12:12:05;6.50;95.60
14349;DHT22;7258;50.376;8.742;2023-03-01T12:14:41;6.50;95.60
14349;DHT22;7258;50.376;8.742;2023-03-01T12:17:03;6.60;95.70
14349;DHT22;7258;50.376;8.742;2023-03-01T12:19:22;6.60;95.60
14349;DHT22;7258;50.376;8.742;2023-03-01T12:21:39;6.60;95.70
14349;DHT22;7258;50.376;8.742;2023-03-01T12:26:28;6.60;95.20
14349;DHT22;7258;50.376;8.742;2023-03-01T12:28:46;6.60;95.10
14349;DHT22;7258;50.376;8.742;2023-03-01T12:31:09;6.70;94.90
14349;DHT22;7258;50.376;8.742;2023-03-01T12:33:24;6.60;94.70
14349;DHT22;7258;50.376;8.742;2023-03-01T12:35:47;6.60;94.70
14349;DHT22;7258;50.376;8.742;2023-03-01T12:38:00;6.60;94.70
14349;DHT22;7258;50.376;8.742;2023-03-01T12:40:21;6.60;94.70
14349;DHT22;7258;50.376;8.742;2023-03-01T12:42:32;6.60;94.70
14349;DHT22;7258;50.376;8.742;2023-03-01T12:44:52;6.60;95.20
14349;DHT22;7258;50.376;8.742;2023-03-01T12:47:07;6.70;95.10
14349;DHT22;7258;50.376;8.742;2023-03-01T12:49:16;6.70;95.60
14349;DHT22;7258;50.376;8.742;2023-03-01T12:51:24;6.70;95.60
14349;DHT22;7258;50.376;8.742;2023-03-01T12:53:31;6.70;95.20
14349;DHT22;7258;50.376;8.742;2023-03-01T12:55:37;6.80;94.80
14349;DHT22;7258;50.376;8.742;2023-03-01T12:57:46;6.80;95.00
14349;DHT22;7258;50.376;8.742;2023-03-01T13:00:00;6.80;94.90
14349;DHT22;7258;50.376;8.742;2023-03-01T13:02:15;6.70;94.70
14349;DHT22;7258;50.376;8.742;2023-03-01T13:04:38;6.70;95.60
14349;DHT22;7258;50.376;8.742;2023-03-01T13:06:57;6.80;94.40
14349;DHT22;7258;50.376;8.742;2023-03-01T13:09:04;6.80;94.40
14349;DHT22;7258;50.376;8.742;2023-03-01T13:11:16;6.80;94.20
14349;DHT22;7258;50.376;8.742;2023-03-01T13:13:23;6.70;94.20
14349;DHT22;7258;50.376;8.742;2023-03-01T13:15:33;6.70;94.30
14349;DHT22;7258;50.376;8.742;2023-03-01T13:17:45;6.70;94.70
14349;DHT22;7258;50.376;8.742;2023-03-01T13:20:11;6.80;95.10
14349;DHT22;7258;50.376;8.742;2023-03-01T13:22:28;6.80;95.20
14349;DHT22;7258;50.376;8.742;2023-03-01T13:24:38;6.80;95.50
14349;DHT22;7258;50.376;8.742;2023-03-01T13:27:09;6.80;95.00
14349;DHT22;7258;50.376;8.742;2023-03-01T13:29:28;6.90;95.10
14349;DHT22;7258;50.376;8.742;2023-03-01T13:32:03;6.90;94.40
14349;DHT22;7258;50.376;8.742;2023-03-01T13:34:44;6.90;94.50
14349;DHT22;7258;50.376;8.742;2023-03-01T13:36:49;6.90;94.90
14349;DHT22;7258;50.376;8.742;2023-03-01T13:38:56;6.90;94.90
14349;DHT22;7258;50.376;8.742;2023-03-01T13:41:01;7.00;94.90
14349;DHT22;7258;50.376;8.742;2023-03-01T13:43:25;6.90;94.30
14349;DHT22;7258;50.376;8.742;2023-03-01T13:45:36;7.00;94.90